sensor_id;sensor_type;location;lat;lon;timestamp;P1;durP1;ratioP1;P2;durP2;ratioP2
49764;SDS011;35657;51.204;-4.130;2023-05-18T00:02:01;7.75;;;4.13;;
49764;SDS011;35657;51.204;-4.130;2023-05-18T00:04:28;8.45;;;3.60;;
49764;SDS011;35657;51.204;-4.130;2023-05-18T00:06:56;6.28;;;3.47;;
49764;SDS011;35657;51.204;-4.130;2023-05-18T00:09:26;9.02;;;3.50;;
49764;SDS011;35657;51.204;-4.130;2023-05-18T00:11:52;7.43;;;3.78;;
49764;SDS011;35657;51.204;-4.130;2023-05-18T00:14:19;9.30;;;3.95;;
49764;SDS011;35657;51.204;-4.130;2023-05-18T00:16:45;8.45;;;4.07;;
49764;SDS011;35657;51.204;-4.130;2023-05-18T00:19:11;7.15;;;3.95;;
49764;SDS011;35657;51.204;-4.130;2023-05-18T00:21:39;8.77;;;4.10;;
49764;SDS011;35657;51.204;-4.130;2023-05-18T00:24:10;16.35;;;4.38;;
49764;SDS011;35657;51.204;-4.130;2023-05-18T00:26:40;6.93;;;3.58;;
49764;SDS011;35657;51.204;-4.130;2023-05-18T00:29:07;4.90;;;3.03;;
49764;SDS011;35657;51.204;-4.130;2023-05-18T00:31:33;9.73;;;4.07;;
49764;SDS011;35657;51.204;-4.130;2023-05-18T00:34:10;5.70;;;3.67;;
49764;SDS011;35657;51.204;-4.130;2023-05-18T00:36:38;8.90;;;4.20;;
49764;SDS011;35657;51.204;-4.130;2023-05-18T00:39:04;6.10;;;3.88;;
49764;SDS011;35657;51.204;-4.130;2023-05-18T00:41:30;7.10;;;3.47;;
49764;SDS011;35657;51.204;-4.130;2023-05-18T00:43:57;8.43;;;4.00;;
49764;SDS011;35657;51.204;-4.130;2023-05-18T00:46:24;9.70;;;3.65;;
49764;SDS011;35657;51.204;-4.130;2023-05-18T00:48:51;11.05;;;3.85;;
49764;SDS011;35657;51.204;-4.130;2023-05-18T00:51:18;7.97;;;3.55;;
49764;SDS011;35657;51.204;-4.130;2023-05-18T00:53:47;7.50;;;3.65;;
49764;SDS011;35657;51.204;-4.130;2023-05-18T00:56:15;6.65;;;3.97;;
49764;SDS011;35657;51.204;-4.130;2023-05-18T00:58:41;12.70;;;5.13;;
49764;SDS011;35657;51.204;-4.130;2023-05-18T01:01:07;8.50;;;3.83;;
49764;SDS011;35657;51.204;-4.130;2023-05-18T01:03:35;6.32;;;3.17;;
49764;SDS011;35657;51.204;-4.130;2023-05-18T01:06:05;8.60;;;3.63;;
49764;SDS011;35657;51.204;-4.130;2023-05-18T01:08:32;8.63;;;3.95;;
49764;SDS011;35657;51.204;-4.130;2023-05-18T01:11:20;7.00;;;3.78;;
49764;SDS011;35657;51.204;-4.130;2023-05-18T01:13:57;6.25;;;3.53;;
49764;SDS011;35657;51.204;-4.130;2023-05-18T01:16:27;13.70;;;4.60;;
49764;SDS011;35657;51.204;-4.130;2023-05-18T01:18:59;7.05;;;4.13;;
49764;SDS011;35657;51.204;-4.130;2023-05-18T01:27:12;10.23;;;3.75;;
49764;SDS011;35657;51.204;-4.130;2023-05-18T01:29:41;6.82;;;3.40;;
49764;SDS011;35657;51.204;-4.130;2023-05-18T01:32:12;14.25;;;4.13;;
49764;SDS011;35657;51.204;-4.130;2023-05-18T01:37:09;9.10;;;4.22;;
49764;SDS011;35657;51.204;-4.130;2023-05-18T01:39:34;8.38;;;4.15;;
49764;SDS011;35657;51.204;-4.130;2023-05-18T01:42:01;13.77;;;4.97;;
49764;SDS011;35657;51.204;-4.130;2023-05-18T01:44:35;12.82;;;4.43;;
49764;SDS011;35657;51.204;-4.130;2023-05-18T01:47:11;9.38;;;4.25;;
49764;SDS011;35657;51.204;-4.130;2023-05-18T01:49:55;8.15;;;3.65;;
49764;SDS011;35657;51.204;-4.130;2023-05-18T01:52:38;12.57;;;4.53;;
49764;SDS011;35657;51.204;-4.130;2023-05-18T01:55:10;10.60;;;4.78;;
49764;SDS011;35657;51.204;-4.130;2023-05-18T01:57:38;10.98;;;4.80;;
49764;SDS011;35657;51.204;-4.130;2023-05-18T02:00:07;11.98;;;5.32;;
49764;SDS011;35657;51.204;-4.130;2023-05-18T02:02:34;10.57;;;4.50;;
49764;SDS011;35657;51.204;-4.130;2023-05-18T02:05:00;14.50;;;5.15;;
49764;SDS011;35657;51.204;-4.130;2023-05-18T02:07:26;14.05;;;4.53;;
49764;SDS011;35657;51.204;-4.130;2023-05-18T02:09:52;8.70;;;3.50;;
49764;SDS011;35657;51.204;-4.130;2023-05-18T02:12:18;13.43;;;4.93;;
49764;SDS011;35657;51.204;-4.130;2023-05-18T02:14:43;10.45;;;4.10;;
49764;SDS011;35657;51.204;-4.130;2023-05-18T02:17:09;12.65;;;4.45;;
49764;SDS011;35657;51.204;-4.130;2023-05-18T02:19:35;9.38;;;4.63;;
49764;SDS011;35657;51.204;-4.130;2023-05-18T02:22:04;9.57;;;4.22;;
49764;SDS011;35657;51.204;-4.130;2023-05-18T02:24:31;8.68;;;4.32;;
49764;SDS011;35657;51.204;-4.130;2023-05-18T02:26:57;10.68;;;4.70;;
49764;SDS011;35657;51.204;-4.130;2023-05-18T02:29:22;9.70;;;4.18;;
49764;SDS011;35657;51.204;-4.130;2023-05-18T02:31:48;8.90;;;4.03;;
49764;SDS011;35657;51.204;-4.130;2023-05-18T02:34:14;8.40;;;4.80;;
49764;SDS011;35657;51.204;-4.130;2023-05-18T02:36:41;9.70;;;4.05;;
49764;SDS011;35657;51.204;-4.130;2023-05-18T02:39:10;6.65;;;4.22;;
49764;SDS011;35657;51.204;-4.130;2023-05-18T02:41:36;7.78;;;4.40;;
49764;SDS011;35657;51.204;-4.130;2023-05-18T02:44:02;9.55;;;4.93;;
49764;SDS011;35657;51.204;-4.130;2023-05-18T02:46:29;10.65;;;4.07;;
49764;SDS011;35657;51.204;-4.130;2023-05-18T02:48:55;7.18;;;4.25;;
49764;SDS011;35657;51.204;-4.130;2023-05-18T02:51:21;12.07;;;4.07;;
49764;SDS011;35657;51.204;-4.130;2023-05-18T02:53:47;6.60;;;3.95;;
49764;SDS011;35657;51.204;-4.130;2023-05-18T02:56:14;9.38;;;4.32;;
49764;SDS011;35657;51.204;-4.130;2023-05-18T02:58:41;11.13;;;3.97;;
49764;SDS011;35657;51.204;-4.130;2023-05-18T03:01:07;10.63;;;4.53;;
49764;SDS011;35657;51.204;-4.130;2023-05-18T03:03:36;10.27;;;4.20;;
49764;SDS011;35657;51.204;-4.130;2023-05-18T03:06:03;8.75;;;4.60;;
49764;SDS011;35657;51.204;-4.130;2023-05-18T03:08:30;13.13;;;5.60;;
49764;SDS011;35657;51.204;-4.130;2023-05-18T03:10:56;13.95;;;4.80;;
49764;SDS011;35657;51.204;-4.130;2023-05-18T03:13:22;10.77;;;5.00;;
49764;SDS011;35657;51.204;-4.130;2023-05-18T03:15:48;11.55;;;4.57;;
49764;SDS011;35657;51.204;-4.130;2023-05-18T03:18:15;10.65;;;5.30;;
49764;SDS011;35657;51.204;-4.130;2023-05-18T03:20:41;12.13;;;4.47;;
49764;SDS011;35657;51.204;-4.130;2023-05-18T03:23:08;7.80;;;4.75;;
49764;SDS011;35657;51.204;-4.130;2023-05-18T03:25:34;10.82;;;5.20;;
49764;SDS011;35657;51.204;-4.130;2023-05-18T03:28:01;11.40;;;4.63;;
49764;SDS011;35657;51.204;-4.130;2023-05-18T03:30:29;9.20;;;4.60;;
49764;SDS011;35657;51.204;-4.130;2023-05-18T03:32:56;11.20;;;5.40;;
49764;SDS011;35657;51.204;-4.130;2023-05-18T03:35:23;11.93;;;4.85;;
49764;SDS011;35657;51.204;-4.130;2023-05-18T03:37:49;12.13;;;5.15;;
49764;SDS011;35657;51.204;-4.130;2023-05-18T03:40:15;10.00;;;5.30;;
49764;SDS011;35657;51.204;-4.130;2023-05-18T03:42:41;8.40;;;4.93;;
49764;SDS011;35657;51.204;-4.130;2023-05-18T03:45:07;7.07;;;4.20;;
49764;SDS011;35657;51.204;-4.130;2023-05-18T03:47:34;10.10;;;5.13;;
49764;SDS011;35657;51.204;-4.130;2023-05-18T03:50:00;9.82;;;4.72;;
49764;SDS011;35657;51.204;-4.130;2023-05-18T03:52:26;10.85;;;4.82;;
49764;SDS011;35657;51.204;-4.130;2023-05-18T03:54:54;13.55;;;4.53;;
49764;SDS011;35657;51.204;-4.130;2023-05-18T03:57:20;7.70;;;4.80;;
49764;SDS011;35657;51.204;-4.130;2023-05-18T03:59:46;10.48;;;4.32;;
49764;SDS011;35657;51.204;-4.130;2023-05-18T04:02:12;9.05;;;4.07;;
49764;SDS011;35657;51.204;-4.130;2023-05-18T04:04:38;9.60;;;3.63;;
49764;SDS011;35657;51.204;-4.130;2023-05-18T04:07:10;6.90;;;4.05;;
49764;SDS011;35657;51.204;-4.130;2023-05-18T04:09:37;10.13;;;4.05;;
49764;SDS011;35657;51.204;-4.130;2023-05-18T04:12:03;7.80;;;4.85;;
49764;SDS011;35657;51.204;-4.130;2023-05-18T04:14:29;8.27;;;3.70;;
49764;SDS011;35657;51.204;-4.130;2023-05-18T04:16:57;9.40;;;3.55;;
49764;SDS011;35657;51.204;-4.130;2023-05-18T04:19:29;6.40;;;3.83;;
49764;SDS011;35657;51.204;-4.130;2023-05-18T04:21:58;10.38;;;4.40;;
49764;SDS011;35657;51.204;-4.130;2023-05-18T04:24:24;6.22;;;3.92;;
49764;SDS011;35657;51.204;-4.130;2023-05-18T04:26:53;6.85;;;3.60;;
49764;SDS011;35657;51.204;-4.130;2023-05-18T04:29:19;8.73;;;3.67;;
49764;SDS011;35657;51.204;-4.130;2023-05-18T04:31:45;7.53;;;3.45;;
49764;SDS011;35657;51.204;-4.130;2023-05-18T04:34:14;7.40;;;3.13;;
49764;SDS011;35657;51.204;-4.130;2023-05-18T04:36:41;9.43;;;3.38;;
49764;SDS011;35657;51.204;-4.130;2023-05-18T04:39:08;10.63;;;3.80;;
49764;SDS011;35657;51.204;-4.130;2023-05-18T04:41:34;6.63;;;3.50;;
49764;SDS011;35657;51.204;-4.130;2023-05-18T04:43:59;6.25;;;3.50;;
49764;SDS011;35657;51.204;-4.130;2023-05-18T04:46:26;10.85;;;3.92;;
49764;SDS011;35657;51.204;-4.130;2023-05-18T04:48:52;10.05;;;3.22;;
49764;SDS011;35657;51.204;-4.130;2023-05-18T04:51:22;13.73;;;3.88;;
49764;SDS011;35657;51.204;-4.130;2023-05-18T04:53:48;8.45;;;4.20;;
49764;SDS011;35657;51.204;-4.130;2023-05-18T04:56:15;6.18;;;3.20;;
49764;SDS011;35657;51.204;-4.130;2023-05-18T04:58:42;6.18;;;3.80;;
49764;SDS011;35657;51.204;-4.130;2023-05-18T05:01:12;8.75;;;3.88;;
49764;SDS011;35657;51.204;-4.130;2023-05-18T05:03:39;9.10;;;3.67;;
49764;SDS011;35657;51.204;-4.130;2023-05-18T05:06:06;10.50;;;3.92;;
49764;SDS011;35657;51.204;-4.130;2023-05-18T05:08:32;8.80;;;3.60;;
49764;SDS011;35657;51.204;-4.130;2023-05-18T05:10:58;7.25;;;3.47;;
49764;SDS011;35657;51.204;-4.130;2023-05-18T05:13:25;7.15;;;3.75;;
49764;SDS011;35657;51.204;-4.130;2023-05-18T05:15:51;6.72;;;3.40;;
49764;SDS011;35657;51.204;-4.130;2023-05-18T05:18:16;8.88;;;3.30;;
49764;SDS011;35657;51.204;-4.130;2023-05-18T05:20:42;6.30;;;3.63;;
49764;SDS011;35657;51.204;-4.130;2023-05-18T05:23:08;6.85;;;3.13;;
49764;SDS011;35657;51.204;-4.130;2023-05-18T05:25:33;7.45;;;3.42;;
49764;SDS011;35657;51.204;-4.130;2023-05-18T05:27:59;9.85;;;3.20;;
49764;SDS011;35657;51.204;-4.130;2023-05-18T05:30:24;5.82;;;3.03;;
49764;SDS011;35657;51.204;-4.130;2023-05-18T05:32:50;7.18;;;3.60;;
49764;SDS011;35657;51.204;-4.130;2023-05-18T05:35:16;7.95;;;2.88;;
49764;SDS011;35657;51.204;-4.130;2023-05-18T05:37:41;5.50;;;2.50;;
49764;SDS011;35657;51.204;-4.130;2023-05-18T05:40:07;6.88;;;2.70;;
49764;SDS011;35657;51.204;-4.130;2023-05-18T05:42:33;6.07;;;2.80;;
49764;SDS011;35657;51.204;-4.130;2023-05-18T05:44:59;9.07;;;2.85;;
49764;SDS011;35657;51.204;-4.130;2023-05-18T05:47:25;9.73;;;2.83;;
49764;SDS011;35657;51.204;-4.130;2023-05-18T05:49:51;5.40;;;2.40;;
49764;SDS011;35657;51.204;-4.130;2023-05-18T05:52:17;5.25;;;2.03;;
49764;SDS011;35657;51.204;-4.130;2023-05-18T05:54:42;4.10;;;1.67;;
49764;SDS011;35657;51.204;-4.130;2023-05-18T05:57:08;4.05;;;2.13;;
49764;SDS011;35657;51.204;-4.130;2023-05-18T05:59:34;4.47;;;1.98;;
49764;SDS011;35657;51.204;-4.130;2023-05-18T06:02:00;9.55;;;2.47;;
49764;SDS011;35657;51.204;-4.130;2023-05-18T06:04:26;4.32;;;1.90;;
49764;SDS011;35657;51.204;-4.130;2023-05-18T06:06:51;4.13;;;1.85;;
49764;SDS011;35657;51.204;-4.130;2023-05-18T06:09:18;3.80;;;1.90;;
49764;SDS011;35657;51.204;-4.130;2023-05-18T06:11:44;5.10;;;1.67;;
49764;SDS011;35657;51.204;-4.130;2023-05-18T06:14:09;2.85;;;1.88;;
49764;SDS011;35657;51.204;-4.130;2023-05-18T06:16:36;6.57;;;1.40;;
49764;SDS011;35657;51.204;-4.130;2023-05-18T06:19:02;2.78;;;1.40;;
49764;SDS011;35657;51.204;-4.130;2023-05-18T06:21:28;3.85;;;1.27;;
49764;SDS011;35657;51.204;-4.130;2023-05-18T06:23:53;3.05;;;1.10;;
49764;SDS011;35657;51.204;-4.130;2023-05-18T06:26:20;2.95;;;1.27;;
49764;SDS011;35657;51.204;-4.130;2023-05-18T06:28:47;1.88;;;1.35;;
49764;SDS011;35657;51.204;-4.130;2023-05-18T06:31:13;3.65;;;1.33;;
49764;SDS011;35657;51.204;-4.130;2023-05-18T06:33:39;5.32;;;1.65;;
49764;SDS011;35657;51.204;-4.130;2023-05-18T06:36:04;4.03;;;1.83;;
49764;SDS011;35657;51.204;-4.130;2023-05-18T06:38:30;5.00;;;1.38;;
49764;SDS011;35657;51.204;-4.130;2023-05-18T06:40:56;1.73;;;0.77;;
49764;SDS011;35657;51.204;-4.130;2023-05-18T06:43:21;4.00;;;1.20;;
49764;SDS011;35657;51.204;-4.130;2023-05-18T06:45:49;2.00;;;1.20;;
49764;SDS011;35657;51.204;-4.130;2023-05-18T06:48:15;1.75;;;1.10;;
49764;SDS011;35657;51.204;-4.130;2023-05-18T06:50:40;1.80;;;1.17;;
49764;SDS011;35657;51.204;-4.130;2023-05-18T06:53:06;8.00;;;1.35;;
49764;SDS011;35657;51.204;-4.130;2023-05-18T06:55:31;2.97;;;1.42;;
49764;SDS011;35657;51.204;-4.130;2023-05-18T06:57:57;1.88;;;1.00;;
49764;SDS011;35657;51.204;-4.130;2023-05-18T07:00:23;4.28;;;1.33;;
49764;SDS011;35657;51.204;-4.130;2023-05-18T07:02:49;2.10;;;1.15;;
49764;SDS011;35657;51.204;-4.130;2023-05-18T07:05:14;2.70;;;1.38;;
49764;SDS011;35657;51.204;-4.130;2023-05-18T07:07:41;3.47;;;1.60;;
49764;SDS011;35657;51.204;-4.130;2023-05-18T07:10:07;2.20;;;1.25;;
49764;SDS011;35657;51.204;-4.130;2023-05-18T07:12:33;4.75;;;1.40;;
49764;SDS011;35657;51.204;-4.130;2023-05-18T07:14:59;3.22;;;1.17;;
49764;SDS011;35657;51.204;-4.130;2023-05-18T07:17:24;2.63;;;1.15;;
49764;SDS011;35657;51.204;-4.130;2023-05-18T07:19:50;2.80;;;1.30;;
49764;SDS011;35657;51.204;-4.130;2023-05-18T07:22:16;1.85;;;1.17;;
49764;SDS011;35657;51.204;-4.130;2023-05-18T07:24:41;2.22;;;1.10;;
49764;SDS011;35657;51.204;-4.130;2023-05-18T07:27:07;4.93;;;1.08;;
49764;SDS011;35657;51.204;-4.130;2023-05-18T07:29:33;6.18;;;1.40;;
49764;SDS011;35657;51.204;-4.130;2023-05-18T07:31:59;2.78;;;1.02;;
49764;SDS011;35657;51.204;-4.130;2023-05-18T07:34:25;4.75;;;1.55;;
49764;SDS011;35657;51.204;-4.130;2023-05-18T07:36:51;3.83;;;1.30;;
49764;SDS011;35657;51.204;-4.130;2023-05-18T07:39:17;1.20;;;1.00;;
49764;SDS011;35657;51.204;-4.130;2023-05-18T07:41:46;3.15;;;1.25;;
49764;SDS011;35657;51.204;-4.130;2023-05-18T07:44:13;1.20;;;0.80;;
49764;SDS011;35657;51.204;-4.130;2023-05-18T07:46:39;4.10;;;1.17;;
49764;SDS011;35657;51.204;-4.130;2023-05-18T07:49:06;4.03;;;1.52;;
49764;SDS011;35657;51.204;-4.130;2023-05-18T07:51:31;2.00;;;1.17;;
49764;SDS011;35657;51.204;-4.130;2023-05-18T07:53:58;2.50;;;1.10;;
49764;SDS011;35657;51.204;-4.130;2023-05-18T07:56:23;7.28;;;1.60;;
49764;SDS011;35657;51.204;-4.130;2023-05-18T07:58:50;3.70;;;1.20;;
49764;SDS011;35657;51.204;-4.130;2023-05-18T08:01:15;3.47;;;1.17;;
49764;SDS011;35657;51.204;-4.130;2023-05-18T08:03:41;7.00;;;1.45;;
49764;SDS011;35657;51.204;-4.130;2023-05-18T08:06:07;6.22;;;2.00;;
49764;SDS011;35657;51.204;-4.130;2023-05-18T08:08:33;3.05;;;1.45;;
49764;SDS011;35657;51.204;-4.130;2023-05-18T08:11:01;5.65;;;1.27;;
49764;SDS011;35657;51.204;-4.130;2023-05-18T08:13:27;2.38;;;1.50;;
49764;SDS011;35657;51.204;-4.130;2023-05-18T08:15:53;2.30;;;1.42;;
49764;SDS011;35657;51.204;-4.130;2023-05-18T08:18:19;4.90;;;1.35;;
49764;SDS011;35657;51.204;-4.130;2023-05-18T08:20:46;2.33;;;1.10;;
49764;SDS011;35657;51.204;-4.130;2023-05-18T08:23:13;7.35;;;1.40;;
49764;SDS011;35657;51.204;-4.130;2023-05-18T08:25:39;2.50;;;1.35;;
49764;SDS011;35657;51.204;-4.130;2023-05-18T08:28:05;3.72;;;1.33;;
49764;SDS011;35657;51.204;-4.130;2023-05-18T08:30:31;4.18;;;1.02;;
49764;SDS011;35657;51.204;-4.130;2023-05-18T08:32:56;4.22;;;1.30;;
49764;SDS011;35657;51.204;-4.130;2023-05-18T08:35:22;3.65;;;1.45;;
49764;SDS011;35657;51.204;-4.130;2023-05-18T08:37:48;4.72;;;1.40;;
49764;SDS011;35657;51.204;-4.130;2023-05-18T08:40:14;3.58;;;1.70;;
49764;SDS011;35657;51.204;-4.130;2023-05-18T08:48:00;3.10;;;1.17;;
49764;SDS011;35657;51.204;-4.130;2023-05-18T08:50:28;3.92;;;1.30;;
49764;SDS011;35657;51.204;-4.130;2023-05-18T08:52:56;1.60;;;1.23;;
49764;SDS011;35657;51.204;-4.130;2023-05-18T08:55:27;5.55;;;1.10;;
49764;SDS011;35657;51.204;-4.130;2023-05-18T08:57:54;2.72;;;1.30;;
49764;SDS011;35657;51.204;-4.130;2023-05-18T09:00:24;2.83;;;1.30;;
49764;SDS011;35657;51.204;-4.130;2023-05-18T09:02:50;5.97;;;1.50;;
49764;SDS011;35657;51.204;-4.130;2023-05-18T09:05:16;3.05;;;1.23;;
49764;SDS011;35657;51.204;-4.130;2023-05-18T09:07:44;1.70;;;1.00;;
49764;SDS011;35657;51.204;-4.130;2023-05-18T09:10:11;2.60;;;1.00;;
49764;SDS011;35657;51.204;-4.130;2023-05-18T09:12:40;1.67;;;1.00;;
49764;SDS011;35657;51.204;-4.130;2023-05-18T09:15:08;4.32;;;1.30;;
49764;SDS011;35657;51.204;-4.130;2023-05-18T09:17:35;4.07;;;1.67;;
49764;SDS011;35657;51.204;-4.130;2023-05-18T09:20:01;5.15;;;1.33;;
49764;SDS011;35657;51.204;-4.130;2023-05-18T09:22:31;3.78;;;1.60;;
49764;SDS011;35657;51.204;-4.130;2023-05-18T09:24:57;2.95;;;1.42;;
49764;SDS011;35657;51.204;-4.130;2023-05-18T09:27:23;2.42;;;1.42;;
49764;SDS011;35657;51.204;-4.130;2023-05-18T09:29:54;4.85;;;1.50;;
49764;SDS011;35657;51.204;-4.130;2023-05-18T09:32:21;4.57;;;1.20;;
49764;SDS011;35657;51.204;-4.130;2023-05-18T09:34:47;1.90;;;1.00;;
49764;SDS011;35657;51.204;-4.130;2023-05-18T09:37:19;3.05;;;1.13;;
49764;SDS011;35657;51.204;-4.130;2023-05-18T09:40:03;3.08;;;1.35;;
49764;SDS011;35657;51.204;-4.130;2023-05-18T09:42:34;1.95;;;1.20;;
49764;SDS011;35657;51.204;-4.130;2023-05-18T09:45:20;4.80;;;2.33;;
49764;SDS011;35657;51.204;-4.130;2023-05-18T09:47:52;4.82;;;1.40;;
49764;SDS011;35657;51.204;-4.130;2023-05-18T09:50:21;1.80;;;1.02;;
49764;SDS011;35657;51.204;-4.130;2023-05-18T09:52:48;6.40;;;1.30;;
49764;SDS011;35657;51.204;-4.130;2023-05-18T09:55:15;2.13;;;1.15;;
49764;SDS011;35657;51.204;-4.130;2023-05-18T09:57:41;5.00;;;2.53;;
49764;SDS011;35657;51.204;-4.130;2023-05-18T10:00:12;3.42;;;1.38;;
49764;SDS011;35657;51.204;-4.130;2023-05-18T10:02:43;2.08;;;1.50;;
49764;SDS011;35657;51.204;-4.130;2023-05-18T10:07:47;6.28;;;1.30;;
49764;SDS011;35657;51.204;-4.130;2023-05-18T10:10:17;1.25;;;1.02;;
49764;SDS011;35657;51.204;-4.130;2023-05-18T10:12:44;3.70;;;1.02;;
49764;SDS011;35657;51.204;-4.130;2023-05-18T10:15:14;3.05;;;1.23;;
49764;SDS011;35657;51.204;-4.130;2023-05-18T10:17:41;3.45;;;1.27;;
49764;SDS011;35657;51.204;-4.130;2023-05-18T10:20:09;4.65;;;1.35;;
49764;SDS011;35657;51.204;-4.130;2023-05-18T10:22:35;3.25;;;1.40;;
49764;SDS011;35657;51.204;-4.130;2023-05-18T10:25:05;6.20;;;1.77;;
49764;SDS011;35657;51.204;-4.130;2023-05-18T10:27:34;3.22;;;1.13;;
49764;SDS011;35657;51.204;-4.130;2023-05-18T10:30:00;4.35;;;1.42;;
49764;SDS011;35657;51.204;-4.130;2023-05-18T10:32:29;3.03;;;1.20;;
49764;SDS011;35657;51.204;-4.130;2023-05-18T10:34:59;1.83;;;1.05;;
49764;SDS011;35657;51.204;-4.130;2023-05-18T10:37:26;2.03;;;1.15;;
49764;SDS011;35657;51.204;-4.130;2023-05-18T10:39:55;1.58;;;1.10;;
49764;SDS011;35657;51.204;-4.130;2023-05-18T10:42:22;4.72;;;0.80;;
49764;SDS011;35657;51.204;-4.130;2023-05-18T10:44:51;4.22;;;1.20;;
49764;SDS011;35657;51.204;-4.130;2023-05-18T10:47:18;2.67;;;1.20;;
49764;SDS011;35657;51.204;-4.130;2023-05-18T10:49:47;2.92;;;1.27;;
49764;SDS011;35657;51.204;-4.130;2023-05-18T10:52:15;3.22;;;1.50;;
49764;SDS011;35657;51.204;-4.130;2023-05-18T10:54:41;4.43;;;1.63;;
49764;SDS011;35657;51.204;-4.130;2023-05-18T10:57:11;1.50;;;0.80;;
49764;SDS011;35657;51.204;-4.130;2023-05-18T10:59:40;3.33;;;1.02;;
49764;SDS011;35657;51.204;-4.130;2023-05-18T11:02:09;5.28;;;1.45;;
49764;SDS011;35657;51.204;-4.130;2023-05-18T11:04:37;5.38;;;2.15;;
49764;SDS011;35657;51.204;-4.130;2023-05-18T11:07:04;4.90;;;1.98;;
49764;SDS011;35657;51.204;-4.130;2023-05-18T11:09:34;1.95;;;0.95;;
49764;SDS011;35657;51.204;-4.130;2023-05-18T11:12:00;4.45;;;1.80;;
49764;SDS011;35657;51.204;-4.130;2023-05-18T11:14:27;3.85;;;2.10;;
49764;SDS011;35657;51.204;-4.130;2023-05-18T11:19:40;2.38;;;1.20;;
49764;SDS011;35657;51.204;-4.130;2023-05-18T11:25:55;3.35;;;1.25;;
49764;SDS011;35657;51.204;-4.130;2023-05-18T11:27:57;3.53;;;1.35;;
49764;SDS011;35657;51.204;-4.130;2023-05-18T11:30:50;3.15;;;0.95;;
49764;SDS011;35657;51.204;-4.130;2023-05-18T11:33:16;4.57;;;1.50;;
49764;SDS011;35657;51.204;-4.130;2023-05-18T11:35:56;9.00;;;1.65;;
49764;SDS011;35657;51.204;-4.130;2023-05-18T11:38:22;1.42;;;1.08;;
49764;SDS011;35657;51.204;-4.130;2023-05-18T11:41:08;4.10;;;1.10;;
49764;SDS011;35657;51.204;-4.130;2023-05-18T11:43:57;5.00;;;1.60;;
49764;SDS011;35657;51.204;-4.130;2023-05-18T11:46:30;3.53;;;1.40;;
49764;SDS011;35657;51.204;-4.130;2023-05-18T11:49:01;3.63;;;1.20;;
49764;SDS011;35657;51.204;-4.130;2023-05-18T11:51:29;2.15;;;1.20;;
49764;SDS011;35657;51.204;-4.130;2023-05-18T11:53:56;5.60;;;1.38;;
49764;SDS011;35657;51.204;-4.130;2023-05-18T11:56:24;3.95;;;1.20;;
49764;SDS011;35657;51.204;-4.130;2023-05-18T12:01:36;3.30;;;1.70;;
49764;SDS011;35657;51.204;-4.130;2023-05-18T12:04:02;4.82;;;2.03;;
49764;SDS011;35657;51.204;-4.130;2023-05-18T12:06:29;3.60;;;1.23;;
49764;SDS011;35657;51.204;-4.130;2023-05-18T12:08:55;5.93;;;1.63;;
49764;SDS011;35657;51.204;-4.130;2023-05-18T12:11:22;6.05;;;2.00;;
49764;SDS011;35657;51.204;-4.130;2023-05-18T12:13:48;3.40;;;1.80;;
49764;SDS011;35657;51.204;-4.130;2023-05-18T12:16:16;5.13;;;1.73;;
49764;SDS011;35657;51.204;-4.130;2023-05-18T12:18:48;3.75;;;1.25;;
49764;SDS011;35657;51.204;-4.130;2023-05-18T12:21:21;4.05;;;1.70;;
49764;SDS011;35657;51.204;-4.130;2023-05-18T12:23:48;6.55;;;1.85;;
49764;SDS011;35657;51.204;-4.130;2023-05-18T12:26:24;3.60;;;1.58;;
49764;SDS011;35657;51.204;-4.130;2023-05-18T12:28:56;3.33;;;1.67;;
49764;SDS011;35657;51.204;-4.130;2023-05-18T12:31:24;8.63;;;2.20;;
49764;SDS011;35657;51.204;-4.130;2023-05-18T12:33:50;5.50;;;1.60;;
49764;SDS011;35657;51.204;-4.130;2023-05-18T12:36:18;5.97;;;1.45;;
49764;SDS011;35657;51.204;-4.130;2023-05-18T12:38:47;6.00;;;1.40;;
49764;SDS011;35657;51.204;-4.130;2023-05-18T12:41:20;5.25;;;1.42;;
49764;SDS011;35657;51.204;-4.130;2023-05-18T12:43:47;5.18;;;1.85;;
49764;SDS011;35657;51.204;-4.130;2023-05-18T12:46:12;5.80;;;1.55;;
49764;SDS011;35657;51.204;-4.130;2023-05-18T12:48:43;2.92;;;1.65;;
49764;SDS011;35657;51.204;-4.130;2023-05-18T12:51:20;3.55;;;1.65;;
49764;SDS011;35657;51.204;-4.130;2023-05-18T12:53:47;3.60;;;1.80;;
49764;SDS011;35657;51.204;-4.130;2023-05-18T12:56:14;4.30;;;2.03;;
49764;SDS011;35657;51.204;-4.130;2023-05-18T12:58:39;5.10;;;2.03;;
49764;SDS011;35657;51.204;-4.130;2023-05-18T13:01:06;4.78;;;2.53;;
49764;SDS011;35657;51.204;-4.130;2023-05-18T13:03:38;6.22;;;2.47;;
49764;SDS011;35657;51.204;-4.130;2023-05-18T13:06:05;8.48;;;1.77;;
49764;SDS011;35657;51.204;-4.130;2023-05-18T13:08:32;7.03;;;2.30;;
49764;SDS011;35657;51.204;-4.130;2023-05-18T13:11:02;8.80;;;2.95;;
49764;SDS011;35657;51.204;-4.130;2023-05-18T13:13:29;8.35;;;2.67;;
49764;SDS011;35657;51.204;-4.130;2023-05-18T13:15:55;5.28;;;3.42;;
49764;SDS011;35657;51.204;-4.130;2023-05-18T13:18:23;7.18;;;2.90;;
49764;SDS011;35657;51.204;-4.130;2023-05-18T13:20:53;4.95;;;2.38;;
49764;SDS011;35657;51.204;-4.130;2023-05-18T13:23:25;7.47;;;3.65;;
49764;SDS011;35657;51.204;-4.130;2023-05-18T13:25:52;8.57;;;3.45;;
49764;SDS011;35657;51.204;-4.130;2023-05-18T13:28:19;10.77;;;3.65;;
49764;SDS011;35657;51.204;-4.130;2023-05-18T13:30:46;10.52;;;4.03;;
49764;SDS011;35657;51.204;-4.130;2023-05-18T13:33:13;9.77;;;3.65;;
49764;SDS011;35657;51.204;-4.130;2023-05-18T13:35:42;9.82;;;4.00;;
49764;SDS011;35657;51.204;-4.130;2023-05-18T13:38:09;6.63;;;3.20;;
49764;SDS011;35657;51.204;-4.130;2023-05-18T13:40:36;6.45;;;3.13;;
49764;SDS011;35657;51.204;-4.130;2023-05-18T13:43:02;8.93;;;3.47;;
49764;SDS011;35657;51.204;-4.130;2023-05-18T13:45:30;4.03;;;2.45;;
49764;SDS011;35657;51.204;-4.130;2023-05-18T13:47:55;10.02;;;3.60;;
49764;SDS011;35657;51.204;-4.130;2023-05-18T13:50:21;8.35;;;4.05;;
49764;SDS011;35657;51.204;-4.130;2023-05-18T13:52:47;4.72;;;2.42;;
49764;SDS011;35657;51.204;-4.130;2023-05-18T13:55:13;5.32;;;3.25;;
49764;SDS011;35657;51.204;-4.130;2023-05-18T13:57:39;8.10;;;2.95;;
49764;SDS011;35657;51.204;-4.130;2023-05-18T14:00:05;8.30;;;4.32;;
49764;SDS011;35657;51.204;-4.130;2023-05-18T14:02:35;5.07;;;2.83;;
49764;SDS011;35657;51.204;-4.130;2023-05-18T14:05:01;9.20;;;3.15;;
49764;SDS011;35657;51.204;-4.130;2023-05-18T14:07:28;7.82;;;3.63;;
49764;SDS011;35657;51.204;-4.130;2023-05-18T14:09:54;11.25;;;3.97;;
49764;SDS011;35657;51.204;-4.130;2023-05-18T14:12:20;6.80;;;3.38;;
49764;SDS011;35657;51.204;-4.130;2023-05-18T14:14:46;10.20;;;4.35;;
49764;SDS011;35657;51.204;-4.130;2023-05-18T14:17:11;6.88;;;3.55;;
49764;SDS011;35657;51.204;-4.130;2023-05-18T14:19:38;6.53;;;3.00;;
49764;SDS011;35657;51.204;-4.130;2023-05-18T14:22:04;7.13;;;3.33;;
49764;SDS011;35657;51.204;-4.130;2023-05-18T14:24:30;7.80;;;3.75;;
49764;SDS011;35657;51.204;-4.130;2023-05-18T14:26:55;7.70;;;2.70;;
49764;SDS011;35657;51.204;-4.130;2023-05-18T14:29:21;8.80;;;3.65;;
49764;SDS011;35657;51.204;-4.130;2023-05-18T14:31:47;7.28;;;3.00;;
49764;SDS011;35657;51.204;-4.130;2023-05-18T14:34:12;7.20;;;3.08;;
49764;SDS011;35657;51.204;-4.130;2023-05-18T14:36:38;4.25;;;2.53;;
49764;SDS011;35657;51.204;-4.130;2023-05-18T14:39:04;6.70;;;2.97;;
49764;SDS011;35657;51.204;-4.130;2023-05-18T14:41:30;9.68;;;3.22;;
49764;SDS011;35657;51.204;-4.130;2023-05-18T14:43:56;4.90;;;2.58;;
49764;SDS011;35657;51.204;-4.130;2023-05-18T14:46:21;5.68;;;2.47;;
49764;SDS011;35657;51.204;-4.130;2023-05-18T14:48:47;6.55;;;3.10;;
49764;SDS011;35657;51.204;-4.130;2023-05-18T14:51:13;6.82;;;3.20;;
49764;SDS011;35657;51.204;-4.130;2023-05-18T14:53:40;12.88;;;3.47;;
49764;SDS011;35657;51.204;-4.130;2023-05-18T14:56:05;7.28;;;2.33;;
49764;SDS011;35657;51.204;-4.130;2023-05-18T14:58:33;4.65;;;3.13;;
49764;SDS011;35657;51.204;-4.130;2023-05-18T15:01:00;7.65;;;2.92;;